Latest Weather Observations for Bairnsdale

IDV60801

Issued at 4:52 pm EDT Sunday 18 November 2018 (issued every 10 minutes, with the page automatically refreshed every 10 minutes)

About weather observations | Map of weather stations | Latest weather observations for VIC | Other Formats
Station Details ID: 085279 Name: BAIRNSDALE AIRPORT Lat: -37.88 Lon: 147.57 Height: 49.4 m
Data from the previous 72 hours. | See also: Recent months at Bairnsdale
Date/Time
EDT
Temp
°C
App
Temp
°C
Dew
Point
°C
Rel
Hum
%
Delta-T
°C
Wind Press
QNH
hPa
Press
MSL
hPa
Rain since
9am
mm
Dir  Spd
km/h
Gust
km/h
Spd
kts
Gust
kts
18/04:30pm 20.2 13.8 10.6 54 5.2 ESE 35 44 19 24 1020.5 1020.5 0.0
18/04:00pm 20.5 14.2 10.9 54 5.2 ESE 35 46 19 25 1020.7 1020.7 0.0
18/03:30pm 20.7 14.2 10.5 52 5.6 ESE 35 44 19 24 1021.0 1021.0 0.0
18/03:00pm 20.5 13.9 10.0 51 5.6 ESE 35 48 19 26 1021.3 1021.3 0.0
18/02:30pm 20.3 14.1 10.1 52 5.5 ESE 33 46 18 25 1021.5 1021.5 0.0
18/02:00pm 21.4 14.9 9.0 45 6.6 ESE 33 44 18 24 1021.8 1021.8 0.0
18/01:30pm 20.9 14.3 8.5 45 6.5 ESE 33 43 18 23 1022.0 1022.0 0.0
18/01:00pm 20.4 14.4 8.7 47 6.1 ESE 30 41 16 22 1022.3 1022.3 0.0
18/12:30pm 20.6 14.3 7.2 42 6.9 ESE 30 39 16 21 1022.6 1022.6 0.0
18/12:00pm 20.3 14.5 8.0 45 6.4 SE 28 37 15 20 1022.8 1022.8 0.0
18/11:30am 20.3 15.0 6.6 41 6.9 ESE 24 35 13 19 1023.2 1023.2 0.0
18/11:00am 20.9 15.9 8.2 44 6.6 ESE 24 33 13 18 1023.4 1023.4 0.0
18/10:30am 20.1 16.1 8.1 46 6.2 E 19 24 10 13 1023.6 1023.6 0.0
18/10:00am 19.3 15.9 9.2 52 5.3 E 17 24 9 13 1023.7 1023.7 0.0
18/09:30am 18.3 14.6 9.6 57 4.6 E 19 26 10 14 1023.8 1023.8 0.0
18/09:00am 16.7 13.9 10.1 65 3.5 ENE 15 19 8 10 1024.0 1024.0 0.0
18/08:30am 14.7 13.0 9.9 73 2.5 E 9 13 5 7 1024.0 1024.0 0.0
18/08:00am 12.5 11.4 10.7 89 0.9 ENE 7 11 4 6 1023.9 1023.9 0.0
18/07:30am 10.7 10.4 10.2 97 0.3 NE 2 7 1 4 1023.8 1023.8 0.0
18/07:00am 9.0 7.6 8.7 98 0.1 NNE 6 7 3 4 1023.4 1023.4 0.0
18/06:30am 6.7 5.9 6.3 97 0.2 CALM 0 0 0 0 1023.2 1023.2 0.0
18/06:00am 6.1 4.0 5.7 97 0.2 NNE 6 7 3 4 1023.0 1023.0 0.0
18/05:30am 5.9 3.5 5.3 96 0.3 NW 7 9 4 5 1022.8 1022.8 0.0
18/05:00am 5.3 2.4 4.7 96 0.3 NW 9 11 5 6 1022.7 1022.7 0.0
18/04:30am 6.3 4.2 5.7 96 0.3 NNW 6 7 3 4 1022.7 1022.7 0.0
18/04:00am 7.3 5.2 6.7 96 0.3 NW 7 9 4 5 1022.8 1022.8 0.0
18/03:30am 6.6 4.4 6.0 96 0.3 NW 7 7 4 4 1023.1 1023.1 0.0
18/03:00am 7.4 5.9 6.7 95 0.3 NE 4 6 2 3 1023.4 1023.4 0.0
18/02:30am 8.9 7.2 8.3 96 0.3 NE 7 9 4 5 1023.5 1023.5 0.0
18/02:00am 8.4 6.5 7.6 95 0.4 N 7 9 4 5 1024.0 1024.0 0.0
18/01:30am 9.7 8.3 8.9 95 0.4 NE 6 7 3 4 1024.3 1024.3 0.0
18/01:00am 10.5 9.1 9.7 95 0.4 NNE 7 7 4 4 1024.6 1024.6 0.0
18/12:30am 8.8 7.1 7.7 93 0.5 NE 6 7 3 4 1024.8 1024.8 0.0
18/12:00am 8.5 7.1 7.3 92 0.6 ENE 4 6 2 3 1025.0 1025.0 0.0
 
Date/Time
EDT
Temp
°C
App
Temp
°C
Dew
Point
°C
Rel
Hum
%
Delta-T
°C
Wind Press
QNH
hPa
Press
MSL
hPa
Rain since
9am
mm
Dir  Spd
km/h
Gust
km/h
Spd
kts
Gust
kts
17/11:55pm 8.4 6.9 7.0 91 0.7 ENE 4 6 2 3 1025.0 1025.0 0.0
17/11:30pm 10.2 8.7 8.6 90 0.8 ENE 6 6 3 3 1025.1 1025.1 0.0
17/11:00pm 10.0 9.2 8.3 89 0.8 ENE 2 7 1 4 1025.1 1025.1 0.0
17/10:30pm 10.8 9.1 8.2 84 1.3 ESE 7 9 4 5 1025.1 1025.1 0.0
17/10:00pm 12.6 10.6 10.0 84 1.3 ESE 11 11 6 6 1025.1 1025.1 0.0
17/09:30pm 13.0 11.0 10.0 82 1.5 E 11 13 6 7 1025.1 1025.1 0.0
17/09:00pm 13.3 11.2 9.7 79 1.8 E 11 13 6 7 1024.7 1024.7 0.0
17/08:30pm 14.0 11.9 9.8 76 2.2 ESE 11 13 6 7 1024.5 1024.5 0.0
17/08:00pm 15.4 12.2 10.0 70 2.8 ESE 17 20 9 11 1024.3 1024.3 0.0
17/07:30pm 16.3 12.7 9.7 65 3.5 E 19 24 10 13 1024.1 1024.1 0.0
17/07:00pm 17.2 13.3 9.4 60 4.1 ESE 20 28 11 15 1023.8 1023.8 0.0
17/06:30pm 17.9 14.0 9.5 58 4.4 E 20 30 11 16 1023.5 1023.5 0.0
17/06:00pm 18.4 14.1 9.2 55 4.8 ESE 22 28 12 15 1023.3 1023.3 0.0
17/05:30pm 17.9 14.1 9.8 59 4.3 ESE 20 26 11 14 1023.2 1023.2 0.0
17/05:00pm 18.9 16.0 12.2 65 3.7 SE 19 28 10 15 1023.2 1023.2 0.0
17/04:30pm 18.1 13.9 11.0 63 3.8 SE 24 32 13 17 1023.3 1023.3 0.0
17/04:00pm 18.4 14.0 10.3 59 4.3 SSE 24 33 13 18 1023.3 1023.3 0.0
17/03:30pm 18.9 14.8 10.2 57 4.7 SE 22 30 12 16 1023.4 1023.4 0.0
17/03:00pm 18.7 14.5 9.8 56 4.7 SE 22 32 12 17 1023.4 1023.4 0.0
17/02:30pm 19.2 15.6 8.2 49 5.7 SE 17 28 9 15 1023.5 1023.5 0.0
17/02:00pm 19.0 16.3 8.9 52 5.3 ESE 13 26 7 14 1023.6 1023.6 0.0
17/01:30pm 17.4 15.7 9.8 61 4.0 SW 9 13 5 7 1023.8 1023.8 0.0
17/01:00pm 15.8 13.7 11.2 74 2.5 SW 13 17 7 9 1024.1 1024.1 0.0
17/12:30pm 16.7 14.3 10.1 65 3.5 S 13 17 7 9 1024.3 1024.3 0.0
17/12:00pm 16.8 13.9 9.7 63 3.7 S 15 20 8 11 1024.3 1024.3 0.0
17/11:30am 16.8 14.5 9.0 60 4.0 SSW 11 19 6 10 1024.3 1024.3 0.0
17/11:00am 16.5 14.1 8.5 59 4.1 SSW 11 17 6 9 1024.3 1024.3 0.0
17/10:30am 17.0 14.6 8.7 58 4.3 W 11 20 6 11 1024.2 1024.2 0.0
17/10:00am 16.5 13.9 9.2 62 3.8 WSW 13 20 7 11 1024.3 1024.3 0.0
17/09:30am 16.1 13.1 9.3 64 3.5 SW 15 20 8 11 1024.3 1024.3 0.0
17/09:00am 14.8 11.5 8.1 64 3.3 WSW 15 20 8 11 1024.2 1024.2 0.0
17/08:30am 13.3 9.4 7.3 67 2.9 W 17 22 9 12 1023.9 1023.9 0.0
17/08:00am 12.5 8.0 6.8 68 2.7 W 20 26 11 14 1023.7 1023.7 0.0
17/07:30am 11.6 7.2 6.5 71 2.4 WNW 19 28 10 15 1023.4 1023.4 0.0
17/07:00am 11.3 7.3 6.6 73 2.2 WNW 17 24 9 13 1023.0 1023.0 0.0
17/06:30am 10.9 6.9 6.6 75 2.0 WNW 17 20 9 11 1022.8 1022.8 0.0
17/06:00am 10.5 6.5 6.5 76 1.9 WNW 17 20 9 11 1022.4 1022.4 0.0
17/05:30am 10.6 7.3 6.4 75 2.0 W 13 17 7 9 1022.2 1022.2 0.0
17/05:00am 10.7 6.6 6.3 74 2.1 W 17 22 9 12 1021.9 1021.9 0.0
17/04:30am 10.5 6.8 6.5 76 1.9 WNW 15 20 8 11 1021.6 1021.6 0.0
17/04:00am 10.8 6.8 6.7 76 1.9 W 17 22 9 12 1021.4 1021.4 0.0
17/03:30am 11.2 7.3 7.3 77 1.9 W 17 24 9 13 1021.4 1021.4 0.0
17/03:00am 11.6 8.3 7.9 78 1.8 W 15 19 8 10 1021.4 1021.4 0.0
17/02:30am 11.8 8.5 8.1 78 1.8 W 15 20 8 11 1021.5 1021.5 0.0
17/02:00am 12.0 8.8 8.5 79 1.7 W 15 20 8 11 1021.4 1021.4 0.0
17/01:30am 12.6 9.5 8.7 77 2.0 W 15 20 8 11 1021.5 1021.5 0.0
17/01:00am 13.1 9.7 9.0 76 2.1 W 17 24 9 13 1021.6 1021.6 0.0
17/12:30am 13.5 10.2 9.4 76 2.1 WSW 17 24 9 13 1021.7 1021.7 0.0
17/12:00am 13.9 10.3 9.7 76 2.2 SW 19 26 10 14 1021.7 1021.7 0.0
 
Date/Time
EDT
Temp
°C
App
Temp
°C
Dew
Point
°C
Rel
Hum
%
Delta-T
°C
Wind Press
QNH
hPa
Press
MSL
hPa
Rain since
9am
mm
Dir  Spd
km/h
Gust
km/h
Spd
kts
Gust
kts
16/11:30pm 14.5 10.5 10.3 76 2.2 SW 22 32 12 17 1021.5 1021.5 0.0
16/11:00pm 15.7 13.6 12.3 80 1.9 SW 15 19 8 10 1021.2 1021.2 0.0
16/10:30pm 16.0 14.6 12.2 78 2.1 SW 11 15 6 8 1021.2 1021.2 0.0
16/10:00pm 16.0 14.7 12.4 79 2.0 SSW 11 13 6 7 1020.8 1020.8 0.0
16/09:30pm 16.4 14.7 12.4 77 2.2 SSW 13 17 7 9 1020.6 1020.6 0.0
16/09:00pm 16.9 15.0 10.5 66 3.4 SSW 11 15 6 8 1020.2 1020.2 0.0
16/08:30pm 17.5 15.2 8.9 57 4.5 S 11 15 6 8 1019.9 1019.9 0.0
16/08:00pm 17.7 15.4 9.1 57 4.5 SSE 11 15 6 8 1019.7 1019.7 0.0
16/07:30pm 17.9 15.2 9.0 56 4.6 SSE 13 17 7 9 1019.4 1019.4 0.0
16/07:00pm 18.1 15.1 9.2 56 4.6 SE 15 20 8 11 1019.0 1018.9 0.0
16/06:30pm 18.3 14.8 8.8 54 4.9 SSE 17 22 9 12 1018.7 1018.6 0.0
16/06:00pm 19.1 15.3 9.0 52 5.3 SSE 19 28 10 15 1018.2 1018.1 0.0
16/05:30pm 19.6 15.1 8.6 49 5.7 SE 22 32 12 17 1018.0 1017.9 0.0
16/05:00pm 19.9 15.1 8.9 49 5.8 SSE 24 32 13 17 1017.8 1017.7 0.0
16/04:30pm 20.1 15.4 9.1 49 5.8 SE 24 35 13 19 1017.7 1017.6 0.0
16/04:00pm 20.3 15.9 8.9 48 6.0 SE 22 30 12 16 1017.5 1017.4 0.0
16/03:30pm 20.9 15.9 9.5 48 6.1 SE 26 33 14 18 1017.3 1017.2 0.0
16/03:00pm 21.4 17.5 9.3 46 6.5 SSE 20 28 11 15 1017.5 1017.4 0.0
16/02:30pm 20.7 16.4 9.3 48 6.1 SSE 22 30 12 16 1017.7 1017.6 0.0
16/02:00pm 21.5 17.9 10.0 48 6.2 ESE 19 30 10 16 1017.7 1017.6 0.0
16/01:30pm 21.0 17.3 9.3 47 6.2 SE 19 30 10 16 1018.0 1017.9 0.0
16/01:00pm 21.1 17.8 9.4 47 6.2 S 17 26 9 14 1018.4 1018.3 0.0
16/12:30pm 20.8 18.4 7.1 41 7.0 SSW 9 17 5 9 1018.5 1018.4 0.0
16/12:00pm 20.8 19.1 8.4 45 6.5 ESE 7 13 4 7 1019.1 1019.0 0.0
16/11:30am 19.5 17.1 6.9 44 6.4 NNW 9 13 5 7 1019.5 1019.5 0.0
16/11:00am 19.0 17.1 6.5 44 6.2 NW 6 13 3 7 1019.7 1019.7 0.0
16/10:30am 17.5 15.0 6.4 48 5.5 N 9 13 5 7 1020.1 1020.1 0.0
16/10:00am 15.9 13.3 6.3 53 4.7 NNE 9 20 5 11 1020.3 1020.3 0.0
16/09:30am 14.6 11.4 6.7 59 3.8 ENE 13 17 7 9 1020.7 1020.7 0.0
16/09:00am 13.6 10.7 6.7 63 3.3 ENE 11 15 6 8 1020.8 1020.8 0.0
16/08:30am 11.8 9.8 6.9 72 2.3 NE 7 9 4 5 1020.7 1020.7 0.0
16/08:00am 9.8 9.0 6.7 81 1.4 CALM 0 0 0 0 1021.1 1021.1 0.0
16/07:30am 8.8 7.1 7.7 93 0.5 NNE 6 7 3 4 1021.0 1021.0 0.0
16/07:00am 8.3 6.1 7.7 96 0.3 ENE 9 13 5 7 1020.7 1020.7 0.0
16/06:30am 6.1 3.4 5.5 96 0.3 ENE 9 11 5 6 1020.4 1020.4 0.0
16/06:00am 5.4 2.5 4.8 96 0.3 NNE 9 11 5 6 1020.7 1020.7 0.0
16/05:30am 4.3 1.6 3.6 95 0.3 N 7 9 4 5 1021.1 1021.1 0.0
16/05:20am 4.4 1.9 3.7 95 0.3 N 6 7 3 4 1021.2 1021.2 0.0
16/05:00am 5.0 2.4 4.3 95 0.3 NNW 7 7 4 4 1021.5 1021.5 0.0
16/04:30am 5.2 2.7 4.5 95 0.3 N 7 9 4 5 1021.9 1021.9 0.0
16/04:00am 5.8 3.4 5.1 95 0.3 N 7 9 4 5 1022.1 1022.1 0.0
16/03:30am 5.8 3.0 5.1 95 0.3 WNW 9 9 5 5 1022.5 1022.5 0.0
16/03:00am 5.6 2.4 4.9 95 0.3 WNW 11 13 6 7 1022.8 1022.8 0.0
16/02:30am 5.8 3.3 4.9 94 0.4 NW 7 11 4 6 1023.3 1023.3 0.0
16/02:00am 6.5 5.5 5.6 94 0.4 CALM 0 6 0 3 1023.3 1023.3 0.0
16/01:30am 7.3 5.3 6.4 94 0.4 WNW 6 7 3 4 1024.0 1024.0 0.0
16/01:00am 7.5 4.6 6.6 94 0.4 NW 11 13 6 7 1024.4 1024.4 0.0
16/12:30am 8.0 6.1 6.9 93 0.5 NNW 6 9 3 5 1024.6 1024.6 0.0
16/12:00am 7.4 5.4 6.2 92 0.5 NW 6 6 3 3 1024.9 1024.9 0.0
 
Date/Time
EDT
Temp
°C
App
Temp
°C
Dew
Point
°C
Rel
Hum
%
Delta-T
°C
Wind Press
QNH
hPa
Press
MSL
hPa
Rain since
9am
mm
Dir  Spd
km/h
Gust
km/h
Spd
kts
Gust
kts
15/11:30pm 7.7 5.7 6.3 91 0.6 NNE 6 7 3 4 1024.9 1024.9 0.0
15/11:00pm 9.4 7.6 8.0 91 0.7 NE 7 9 4 5 1024.9 1024.9 0.0
15/10:30pm 8.4 6.9 7.0 91 0.7 SSW 4 7 2 4 1025.0 1025.0 0.0
15/10:00pm 8.2 7.4 6.5 89 0.8 CALM 0 0 0 0 1025.2 1025.2 0.0
15/09:30pm 8.7 7.9 6.5 86 1.0 CALM 0 0 0 0 1024.9 1024.9 0.0
15/09:00pm 10.7 8.9 7.0 78 1.7 ESE 6 6 3 3 1024.8 1024.8 0.0
15/08:30pm 12.5 10.4 8.2 75 2.1 SE 9 11 5 6 1024.6 1024.6 0.0
15/08:00pm 13.4 10.8 7.6 68 2.8 ESE 11 17 6 9 1024.6 1024.6 0.0
15/07:30pm 14.1 10.7 7.6 65 3.2 SE 15 19 8 10 1024.5 1024.5 0.0
15/07:00pm 14.8 10.3 7.1 60 3.8 SE 20 26 11 14 1024.0 1024.0 0.0
15/06:30pm 15.5 11.6 7.0 57 4.2 SSE 17 24 9 13 1023.8 1023.8 0.0
15/06:00pm 15.7 11.1 6.4 54 4.5 SSE 20 26 11 14 1023.5 1023.5 0.0
15/05:30pm 15.4 10.8 6.4 55 4.4 SSE 20 28 11 15 1023.5 1023.5 0.0
15/05:00pm 15.5 11.4 6.0 53 4.6 SSE 17 24 9 13 1023.6 1023.6 0.0

Other Formats:

Comma delimited format used in spreadsheet applications
http://www.bom.gov.au/fwo/IDV60801/IDV60801.94912.axf

JavaScript Object Notation format (JSON) in row-major order
http://www.bom.gov.au/fwo/IDV60801/IDV60801.94912.json